sensor_id;sensor_type;location;lat;lon;timestamp;P1;durP1;ratioP1;P2;durP2;ratioP2
74309;SDS011;62722;51.142;17.052;2022-10-18T00:00:58;15.60;;;8.70;;
74309;SDS011;62722;51.142;17.052;2022-10-18T00:03:37;15.77;;;8.90;;
74309;SDS011;62722;51.142;17.052;2022-10-18T00:06:05;14.95;;;8.65;;
74309;SDS011;62722;51.142;17.052;2022-10-18T00:08:33;15.68;;;8.43;;
74309;SDS011;62722;51.142;17.052;2022-10-18T00:11:01;15.95;;;8.77;;
74309;SDS011;62722;51.142;17.052;2022-10-18T00:13:29;17.55;;;9.30;;
74309;SDS011;62722;51.142;17.052;2022-10-18T00:15:57;15.32;;;9.50;;
74309;SDS011;62722;51.142;17.052;2022-10-18T00:18:26;16.55;;;9.48;;
74309;SDS011;62722;51.142;17.052;2022-10-18T00:20:58;15.25;;;9.05;;
74309;SDS011;62722;51.142;17.052;2022-10-18T00:23:27;15.68;;;8.60;;
74309;SDS011;62722;51.142;17.052;2022-10-18T00:26:02;13.73;;;8.50;;
74309;SDS011;62722;51.142;17.052;2022-10-18T00:28:30;13.65;;;8.68;;
74309;SDS011;62722;51.142;17.052;2022-10-18T00:31:07;15.40;;;8.48;;
74309;SDS011;62722;51.142;17.052;2022-10-18T00:33:36;14.27;;;8.63;;
74309;SDS011;62722;51.142;17.052;2022-10-18T00:36:05;13.30;;;8.65;;
74309;SDS011;62722;51.142;17.052;2022-10-18T00:38:33;14.68;;;8.57;;
74309;SDS011;62722;51.142;17.052;2022-10-18T00:41:00;15.05;;;8.77;;
74309;SDS011;62722;51.142;17.052;2022-10-18T00:43:28;13.57;;;8.25;;
74309;SDS011;62722;51.142;17.052;2022-10-18T00:45:55;14.27;;;8.13;;
74309;SDS011;62722;51.142;17.052;2022-10-18T00:48:23;14.15;;;8.73;;
74309;SDS011;62722;51.142;17.052;2022-10-18T00:50:51;13.43;;;7.75;;
74309;SDS011;62722;51.142;17.052;2022-10-18T00:53:21;14.93;;;8.95;;
74309;SDS011;62722;51.142;17.052;2022-10-18T00:55:49;13.75;;;8.55;;
74309;SDS011;62722;51.142;17.052;2022-10-18T00:58:16;14.00;;;8.60;;
74309;SDS011;62722;51.142;17.052;2022-10-18T01:00:45;18.77;;;9.07;;
74309;SDS011;62722;51.142;17.052;2022-10-18T01:03:12;14.40;;;8.35;;
74309;SDS011;62722;51.142;17.052;2022-10-18T01:05:41;14.50;;;8.48;;
74309;SDS011;62722;51.142;17.052;2022-10-18T01:11:07;13.45;;;7.40;;
74309;SDS011;62722;51.142;17.052;2022-10-18T01:13:52;14.25;;;8.20;;
74309;SDS011;62722;51.142;17.052;2022-10-18T01:16:28;16.52;;;9.05;;
74309;SDS011;62722;51.142;17.052;2022-10-18T01:19:03;16.67;;;8.80;;
74309;SDS011;62722;51.142;17.052;2022-10-18T01:21:42;13.20;;;8.07;;
74309;SDS011;62722;51.142;17.052;2022-10-18T01:24:24;13.32;;;7.57;;
74309;SDS011;62722;51.142;17.052;2022-10-18T01:29:56;15.02;;;7.97;;
74309;SDS011;62722;51.142;17.052;2022-10-18T01:32:38;13.50;;;7.80;;
74309;SDS011;62722;51.142;17.052;2022-10-18T01:35:10;12.23;;;8.07;;
74309;SDS011;62722;51.142;17.052;2022-10-18T01:37:43;17.17;;;8.40;;
74309;SDS011;62722;51.142;17.052;2022-10-18T01:40:14;14.25;;;8.02;;
74309;SDS011;62722;51.142;17.052;2022-10-18T01:42:45;15.75;;;8.40;;
74309;SDS011;62722;51.142;17.052;2022-10-18T01:45:14;14.52;;;8.52;;
74309;SDS011;62722;51.142;17.052;2022-10-18T01:47:45;14.48;;;7.85;;
74309;SDS011;62722;51.142;17.052;2022-10-18T01:50:13;15.23;;;9.27;;
74309;SDS011;62722;51.142;17.052;2022-10-18T01:52:46;16.73;;;9.30;;
74309;SDS011;62722;51.142;17.052;2022-10-18T01:55:14;14.15;;;8.15;;
74309;SDS011;62722;51.142;17.052;2022-10-18T01:57:44;13.02;;;8.02;;
74309;SDS011;62722;51.142;17.052;2022-10-18T02:00:28;15.10;;;8.10;;
74309;SDS011;62722;51.142;17.052;2022-10-18T02:03:05;15.23;;;7.85;;
74309;SDS011;62722;51.142;17.052;2022-10-18T02:05:42;14.27;;;8.00;;
74309;SDS011;62722;51.142;17.052;2022-10-18T02:08:16;15.05;;;8.27;;
74309;SDS011;62722;51.142;17.052;2022-10-18T02:10:52;15.38;;;7.20;;
74309;SDS011;62722;51.142;17.052;2022-10-18T02:13:23;15.93;;;8.88;;
74309;SDS011;62722;51.142;17.052;2022-10-18T02:15:55;11.50;;;7.40;;
74309;SDS011;62722;51.142;17.052;2022-10-18T02:18:29;11.30;;;7.35;;
74309;SDS011;62722;51.142;17.052;2022-10-18T02:21:02;15.18;;;8.35;;
74309;SDS011;62722;51.142;17.052;2022-10-18T02:23:31;13.00;;;7.90;;
74309;SDS011;62722;51.142;17.052;2022-10-18T02:26:00;13.30;;;7.80;;
74309;SDS011;62722;51.142;17.052;2022-10-18T02:28:27;15.60;;;8.43;;
74309;SDS011;62722;51.142;17.052;2022-10-18T02:30:57;16.95;;;8.48;;
74309;SDS011;62722;51.142;17.052;2022-10-18T02:33:33;12.43;;;8.35;;
74309;SDS011;62722;51.142;17.052;2022-10-18T02:36:10;13.60;;;7.95;;
74309;SDS011;62722;51.142;17.052;2022-10-18T02:38:43;16.58;;;8.85;;
74309;SDS011;62722;51.142;17.052;2022-10-18T02:41:12;14.40;;;8.30;;
74309;SDS011;62722;51.142;17.052;2022-10-18T02:43:48;16.88;;;8.93;;
74309;SDS011;62722;51.142;17.052;2022-10-18T02:46:15;16.52;;;8.63;;
74309;SDS011;62722;51.142;17.052;2022-10-18T02:48:44;16.60;;;8.27;;
74309;SDS011;62722;51.142;17.052;2022-10-18T02:51:12;13.95;;;8.10;;
74309;SDS011;62722;51.142;17.052;2022-10-18T02:53:39;13.85;;;8.32;;
74309;SDS011;62722;51.142;17.052;2022-10-18T02:56:06;15.43;;;8.80;;
74309;SDS011;62722;51.142;17.052;2022-10-18T02:58:34;14.05;;;8.98;;
74309;SDS011;62722;51.142;17.052;2022-10-18T03:01:01;19.60;;;9.10;;
74309;SDS011;62722;51.142;17.052;2022-10-18T03:03:29;16.90;;;8.73;;
74309;SDS011;62722;51.142;17.052;2022-10-18T03:05:57;15.68;;;8.85;;
74309;SDS011;62722;51.142;17.052;2022-10-18T03:08:25;15.45;;;8.38;;
74309;SDS011;62722;51.142;17.052;2022-10-18T03:10:52;14.23;;;8.23;;
74309;SDS011;62722;51.142;17.052;2022-10-18T03:13:20;15.05;;;8.75;;
74309;SDS011;62722;51.142;17.052;2022-10-18T03:15:50;12.13;;;8.13;;
74309;SDS011;62722;51.142;17.052;2022-10-18T03:18:17;15.73;;;8.65;;
74309;SDS011;62722;51.142;17.052;2022-10-18T03:20:44;16.35;;;9.38;;
74309;SDS011;62722;51.142;17.052;2022-10-18T03:23:12;15.07;;;8.65;;
74309;SDS011;62722;51.142;17.052;2022-10-18T03:25:39;14.88;;;8.20;;
74309;SDS011;62722;51.142;17.052;2022-10-18T03:28:07;15.70;;;8.50;;
74309;SDS011;62722;51.142;17.052;2022-10-18T03:30:34;12.85;;;8.82;;
74309;SDS011;62722;51.142;17.052;2022-10-18T03:33:03;13.15;;;8.32;;
74309;SDS011;62722;51.142;17.052;2022-10-18T03:35:30;13.63;;;8.40;;
74309;SDS011;62722;51.142;17.052;2022-10-18T03:37:57;16.30;;;8.68;;
74309;SDS011;62722;51.142;17.052;2022-10-18T03:40:26;15.75;;;9.05;;
74309;SDS011;62722;51.142;17.052;2022-10-18T03:42:53;14.60;;;9.45;;
74309;SDS011;62722;51.142;17.052;2022-10-18T03:45:20;17.83;;;9.10;;
74309;SDS011;62722;51.142;17.052;2022-10-18T03:47:47;13.73;;;8.38;;
74309;SDS011;62722;51.142;17.052;2022-10-18T03:50:14;16.90;;;9.57;;
74309;SDS011;62722;51.142;17.052;2022-10-18T03:52:42;13.77;;;8.63;;
74309;SDS011;62722;51.142;17.052;2022-10-18T03:55:09;17.80;;;8.20;;
74309;SDS011;62722;51.142;17.052;2022-10-18T03:57:38;14.20;;;8.25;;
74309;SDS011;62722;51.142;17.052;2022-10-18T04:00:05;12.77;;;8.25;;
74309;SDS011;62722;51.142;17.052;2022-10-18T04:02:33;13.80;;;8.10;;
74309;SDS011;62722;51.142;17.052;2022-10-18T04:05:00;15.07;;;8.68;;
74309;SDS011;62722;51.142;17.052;2022-10-18T04:07:28;15.93;;;8.15;;
74309;SDS011;62722;51.142;17.052;2022-10-18T04:09:55;11.52;;;8.05;;
74309;SDS011;62722;51.142;17.052;2022-10-18T04:12:22;12.75;;;7.68;;
74309;SDS011;62722;51.142;17.052;2022-10-18T04:14:50;13.52;;;8.00;;
74309;SDS011;62722;51.142;17.052;2022-10-18T04:17:21;11.20;;;7.78;;
74309;SDS011;62722;51.142;17.052;2022-10-18T04:19:48;13.13;;;8.27;;
74309;SDS011;62722;51.142;17.052;2022-10-18T04:22:15;13.00;;;8.02;;
74309;SDS011;62722;51.142;17.052;2022-10-18T04:24:52;13.82;;;7.95;;
74309;SDS011;62722;51.142;17.052;2022-10-18T04:27:22;13.60;;;7.80;;
74309;SDS011;62722;51.142;17.052;2022-10-18T04:29:52;12.30;;;7.10;;
74309;SDS011;62722;51.142;17.052;2022-10-18T04:32:20;13.73;;;7.85;;
74309;SDS011;62722;51.142;17.052;2022-10-18T04:34:47;12.55;;;8.48;;
74309;SDS011;62722;51.142;17.052;2022-10-18T04:37:14;14.60;;;8.10;;
74309;SDS011;62722;51.142;17.052;2022-10-18T04:39:42;12.30;;;7.63;;
74309;SDS011;62722;51.142;17.052;2022-10-18T04:42:11;12.90;;;8.00;;
74309;SDS011;62722;51.142;17.052;2022-10-18T04:44:38;14.50;;;8.35;;
74309;SDS011;62722;51.142;17.052;2022-10-18T04:47:07;14.20;;;8.52;;
74309;SDS011;62722;51.142;17.052;2022-10-18T04:49:34;14.23;;;8.45;;
74309;SDS011;62722;51.142;17.052;2022-10-18T04:52:01;13.02;;;7.32;;
74309;SDS011;62722;51.142;17.052;2022-10-18T04:54:29;13.48;;;7.57;;
74309;SDS011;62722;51.142;17.052;2022-10-18T04:56:56;11.90;;;6.95;;
74309;SDS011;62722;51.142;17.052;2022-10-18T04:59:23;10.55;;;6.40;;
74309;SDS011;62722;51.142;17.052;2022-10-18T05:01:50;13.13;;;7.32;;
74309;SDS011;62722;51.142;17.052;2022-10-18T05:04:19;12.93;;;7.70;;
74309;SDS011;62722;51.142;17.052;2022-10-18T05:06:46;15.18;;;7.82;;
74309;SDS011;62722;51.142;17.052;2022-10-18T05:09:13;14.73;;;8.38;;
74309;SDS011;62722;51.142;17.052;2022-10-18T05:11:40;14.98;;;8.55;;
74309;SDS011;62722;51.142;17.052;2022-10-18T05:14:07;13.90;;;8.20;;
74309;SDS011;62722;51.142;17.052;2022-10-18T05:16:35;12.68;;;8.10;;
74309;SDS011;62722;51.142;17.052;2022-10-18T05:19:03;13.52;;;7.78;;
74309;SDS011;62722;51.142;17.052;2022-10-18T05:21:35;13.15;;;7.97;;
74309;SDS011;62722;51.142;17.052;2022-10-18T05:24:02;13.93;;;8.30;;
74309;SDS011;62722;51.142;17.052;2022-10-18T05:26:31;13.10;;;8.88;;
74309;SDS011;62722;51.142;17.052;2022-10-18T05:28:58;13.25;;;7.90;;
74309;SDS011;62722;51.142;17.052;2022-10-18T05:31:25;13.32;;;8.13;;
74309;SDS011;62722;51.142;17.052;2022-10-18T05:33:52;15.70;;;8.50;;
74309;SDS011;62722;51.142;17.052;2022-10-18T05:36:20;13.88;;;8.52;;
74309;SDS011;62722;51.142;17.052;2022-10-18T05:38:48;16.48;;;9.15;;
74309;SDS011;62722;51.142;17.052;2022-10-18T05:41:17;15.68;;;8.77;;
74309;SDS011;62722;51.142;17.052;2022-10-18T05:43:44;14.48;;;8.85;;
74309;SDS011;62722;51.142;17.052;2022-10-18T05:46:11;15.05;;;8.27;;
74309;SDS011;62722;51.142;17.052;2022-10-18T05:48:38;15.75;;;8.95;;
74309;SDS011;62722;51.142;17.052;2022-10-18T05:51:06;13.30;;;8.75;;
74309;SDS011;62722;51.142;17.052;2022-10-18T05:53:33;19.80;;;10.65;;
74309;SDS011;62722;51.142;17.052;2022-10-18T05:56:01;18.00;;;9.77;;
74309;SDS011;62722;51.142;17.052;2022-10-18T05:58:29;19.90;;;11.05;;
74309;SDS011;62722;51.142;17.052;2022-10-18T06:00:57;21.42;;;10.57;;
74309;SDS011;62722;51.142;17.052;2022-10-18T06:03:25;22.52;;;12.25;;
74309;SDS011;62722;51.142;17.052;2022-10-18T06:05:57;23.73;;;11.20;;
74309;SDS011;62722;51.142;17.052;2022-10-18T06:08:25;22.05;;;11.40;;
74309;SDS011;62722;51.142;17.052;2022-10-18T06:10:54;19.83;;;11.98;;
74309;SDS011;62722;51.142;17.052;2022-10-18T06:13:23;22.42;;;12.48;;
74309;SDS011;62722;51.142;17.052;2022-10-18T06:15:54;19.67;;;11.25;;
74309;SDS011;62722;51.142;17.052;2022-10-18T06:18:21;18.95;;;11.02;;
74309;SDS011;62722;51.142;17.052;2022-10-18T06:20:48;19.98;;;11.18;;
74309;SDS011;62722;51.142;17.052;2022-10-18T06:23:21;20.20;;;11.43;;
74309;SDS011;62722;51.142;17.052;2022-10-18T06:25:49;22.05;;;11.43;;
74309;SDS011;62722;51.142;17.052;2022-10-18T06:28:16;21.00;;;12.05;;
74309;SDS011;62722;51.142;17.052;2022-10-18T06:30:45;20.17;;;11.50;;
74309;SDS011;62722;51.142;17.052;2022-10-18T06:33:12;18.98;;;11.45;;
74309;SDS011;62722;51.142;17.052;2022-10-18T06:35:39;17.80;;;10.70;;
74309;SDS011;62722;51.142;17.052;2022-10-18T06:38:07;21.55;;;11.00;;
74309;SDS011;62722;51.142;17.052;2022-10-18T06:40:34;21.70;;;11.55;;
74309;SDS011;62722;51.142;17.052;2022-10-18T06:43:02;27.35;;;12.63;;
74309;SDS011;62722;51.142;17.052;2022-10-18T06:45:32;30.88;;;12.70;;
74309;SDS011;62722;51.142;17.052;2022-10-18T06:48:00;20.85;;;12.25;;
74309;SDS011;62722;51.142;17.052;2022-10-18T06:50:27;20.45;;;12.43;;
74309;SDS011;62722;51.142;17.052;2022-10-18T06:52:55;20.98;;;11.43;;
74309;SDS011;62722;51.142;17.052;2022-10-18T06:55:22;21.30;;;11.25;;
74309;SDS011;62722;51.142;17.052;2022-10-18T06:57:49;24.33;;;12.32;;
74309;SDS011;62722;51.142;17.052;2022-10-18T07:00:16;18.88;;;10.50;;
74309;SDS011;62722;51.142;17.052;2022-10-18T07:02:43;20.83;;;12.68;;
74309;SDS011;62722;51.142;17.052;2022-10-18T07:05:12;22.10;;;12.23;;
74309;SDS011;62722;51.142;17.052;2022-10-18T07:07:39;25.42;;;12.05;;
74309;SDS011;62722;51.142;17.052;2022-10-18T07:10:07;19.98;;;10.60;;
74309;SDS011;62722;51.142;17.052;2022-10-18T07:12:34;23.58;;;12.27;;
74309;SDS011;62722;51.142;17.052;2022-10-18T07:15:02;21.27;;;11.82;;
74309;SDS011;62722;51.142;17.052;2022-10-18T07:17:29;21.88;;;11.40;;
74309;SDS011;62722;51.142;17.052;2022-10-18T07:19:56;21.50;;;12.40;;
74309;SDS011;62722;51.142;17.052;2022-10-18T07:22:25;23.67;;;12.00;;
74309;SDS011;62722;51.142;17.052;2022-10-18T07:24:52;25.40;;;12.57;;
74309;SDS011;62722;51.142;17.052;2022-10-18T07:27:19;22.58;;;12.25;;
74309;SDS011;62722;51.142;17.052;2022-10-18T07:29:47;29.42;;;12.70;;
74309;SDS011;62722;51.142;17.052;2022-10-18T07:32:14;20.80;;;12.07;;
74309;SDS011;62722;51.142;17.052;2022-10-18T07:34:41;36.00;;;14.77;;
74309;SDS011;62722;51.142;17.052;2022-10-18T07:37:08;26.30;;;12.60;;
74309;SDS011;62722;51.142;17.052;2022-10-18T07:39:37;25.75;;;14.15;;
74309;SDS011;62722;51.142;17.052;2022-10-18T07:42:04;20.10;;;12.63;;
74309;SDS011;62722;51.142;17.052;2022-10-18T07:44:32;31.20;;;12.73;;
74309;SDS011;62722;51.142;17.052;2022-10-18T07:46:59;24.63;;;12.57;;
74309;SDS011;62722;51.142;17.052;2022-10-18T07:49:26;25.98;;;11.75;;
74309;SDS011;62722;51.142;17.052;2022-10-18T07:51:53;20.58;;;11.52;;
74309;SDS011;62722;51.142;17.052;2022-10-18T07:54:20;20.73;;;11.05;;
74309;SDS011;62722;51.142;17.052;2022-10-18T07:56:49;18.60;;;10.38;;
74309;SDS011;62722;51.142;17.052;2022-10-18T07:59:16;17.08;;;9.77;;
74309;SDS011;62722;51.142;17.052;2022-10-18T08:01:43;16.30;;;10.13;;
74309;SDS011;62722;51.142;17.052;2022-10-18T08:04:10;19.10;;;10.00;;
74309;SDS011;62722;51.142;17.052;2022-10-18T08:06:37;17.45;;;9.75;;
74309;SDS011;62722;51.142;17.052;2022-10-18T08:09:05;16.95;;;9.75;;
74309;SDS011;62722;51.142;17.052;2022-10-18T08:11:32;16.88;;;8.95;;
74309;SDS011;62722;51.142;17.052;2022-10-18T08:14:01;13.80;;;9.05;;
74309;SDS011;62722;51.142;17.052;2022-10-18T08:16:28;14.70;;;8.65;;
74309;SDS011;62722;51.142;17.052;2022-10-18T08:18:56;15.10;;;8.35;;
74309;SDS011;62722;51.142;17.052;2022-10-18T08:21:24;16.73;;;8.77;;
74309;SDS011;62722;51.142;17.052;2022-10-18T08:23:52;13.82;;;8.68;;
74309;SDS011;62722;51.142;17.052;2022-10-18T08:26:20;16.42;;;9.00;;
74309;SDS011;62722;51.142;17.052;2022-10-18T08:28:48;15.18;;;8.55;;
74309;SDS011;62722;51.142;17.052;2022-10-18T08:31:17;13.77;;;8.25;;
74309;SDS011;62722;51.142;17.052;2022-10-18T08:33:45;14.38;;;8.60;;
74309;SDS011;62722;51.142;17.052;2022-10-18T08:36:13;15.52;;;8.70;;
74309;SDS011;62722;51.142;17.052;2022-10-18T08:38:42;17.48;;;9.10;;
74309;SDS011;62722;51.142;17.052;2022-10-18T08:41:16;14.55;;;8.65;;
74309;SDS011;62722;51.142;17.052;2022-10-18T08:43:55;13.20;;;8.05;;
74309;SDS011;62722;51.142;17.052;2022-10-18T08:46:32;15.00;;;8.90;;
74309;SDS011;62722;51.142;17.052;2022-10-18T08:49:02;13.68;;;8.48;;
74309;SDS011;62722;51.142;17.052;2022-10-18T08:51:32;14.50;;;8.95;;
74309;SDS011;62722;51.142;17.052;2022-10-18T08:54:05;14.25;;;8.02;;
74309;SDS011;62722;51.142;17.052;2022-10-18T08:56:36;16.45;;;7.85;;
74309;SDS011;62722;51.142;17.052;2022-10-18T08:59:07;13.90;;;8.27;;
74309;SDS011;62722;51.142;17.052;2022-10-18T09:01:40;13.02;;;8.13;;
74309;SDS011;62722;51.142;17.052;2022-10-18T09:04:21;16.00;;;8.40;;
74309;SDS011;62722;51.142;17.052;2022-10-18T09:07:01;14.63;;;8.18;;
74309;SDS011;62722;51.142;17.052;2022-10-18T09:09:43;14.60;;;7.78;;
74309;SDS011;62722;51.142;17.052;2022-10-18T09:15:16;13.23;;;8.02;;
74309;SDS011;62722;51.142;17.052;2022-10-18T09:17:58;15.30;;;8.13;;
74309;SDS011;62722;51.142;17.052;2022-10-18T09:20:33;12.52;;;8.05;;
74309;SDS011;62722;51.142;17.052;2022-10-18T09:25:43;12.80;;;7.68;;
74309;SDS011;62722;51.142;17.052;2022-10-18T09:28:15;12.10;;;7.57;;
74309;SDS011;62722;51.142;17.052;2022-10-18T09:30:51;15.18;;;8.30;;
74309;SDS011;62722;51.142;17.052;2022-10-18T09:36:15;13.10;;;7.85;;
74309;SDS011;62722;51.142;17.052;2022-10-18T09:38:47;14.05;;;8.35;;
74309;SDS011;62722;51.142;17.052;2022-10-18T09:41:18;11.98;;;7.57;;
74309;SDS011;62722;51.142;17.052;2022-10-18T09:43:50;14.68;;;8.05;;
74309;SDS011;62722;51.142;17.052;2022-10-18T09:46:22;13.00;;;7.95;;
74309;SDS011;62722;51.142;17.052;2022-10-18T09:48:56;17.00;;;8.85;;
74309;SDS011;62722;51.142;17.052;2022-10-18T09:51:27;12.07;;;7.75;;
74309;SDS011;62722;51.142;17.052;2022-10-18T09:54:04;15.07;;;8.65;;
74309;SDS011;62722;51.142;17.052;2022-10-18T09:56:43;12.20;;;7.72;;
74309;SDS011;62722;51.142;17.052;2022-10-18T09:59:26;12.73;;;7.82;;
74309;SDS011;62722;51.142;17.052;2022-10-18T10:02:00;14.18;;;8.32;;
74309;SDS011;62722;51.142;17.052;2022-10-18T10:04:29;14.43;;;8.02;;
74309;SDS011;62722;51.142;17.052;2022-10-18T10:06:58;14.45;;;8.00;;
74309;SDS011;62722;51.142;17.052;2022-10-18T10:09:27;14.10;;;8.30;;
74309;SDS011;62722;51.142;17.052;2022-10-18T10:11:55;13.00;;;7.93;;
74309;SDS011;62722;51.142;17.052;2022-10-18T10:14:23;12.75;;;7.80;;
74309;SDS011;62722;51.142;17.052;2022-10-18T10:16:53;15.63;;;8.23;;
74309;SDS011;62722;51.142;17.052;2022-10-18T10:19:23;12.88;;;7.40;;
74309;SDS011;62722;51.142;17.052;2022-10-18T10:21:56;13.00;;;7.78;;
74309;SDS011;62722;51.142;17.052;2022-10-18T10:24:31;13.45;;;8.02;;
74309;SDS011;62722;51.142;17.052;2022-10-18T10:27:02;14.00;;;9.32;;
74309;SDS011;62722;51.142;17.052;2022-10-18T10:29:51;13.82;;;8.27;;
74309;SDS011;62722;51.142;17.052;2022-10-18T10:32:22;15.00;;;8.82;;
74309;SDS011;62722;51.142;17.052;2022-10-18T10:34:52;15.10;;;8.23;;
74309;SDS011;62722;51.142;17.052;2022-10-18T10:37:23;15.75;;;9.13;;
74309;SDS011;62722;51.142;17.052;2022-10-18T10:40:12;13.73;;;8.93;;
74309;SDS011;62722;51.142;17.052;2022-10-18T10:42:53;14.38;;;8.50;;
74309;SDS011;62722;51.142;17.052;2022-10-18T10:45:23;13.75;;;8.40;;
74309;SDS011;62722;51.142;17.052;2022-10-18T10:47:55;15.55;;;8.68;;
74309;SDS011;62722;51.142;17.052;2022-10-18T10:50:29;12.13;;;8.20;;
74309;SDS011;62722;51.142;17.052;2022-10-18T10:52:58;14.55;;;8.20;;
74309;SDS011;62722;51.142;17.052;2022-10-18T10:55:28;12.52;;;8.75;;
74309;SDS011;62722;51.142;17.052;2022-10-18T10:58:01;13.00;;;8.15;;
74309;SDS011;62722;51.142;17.052;2022-10-18T11:00:35;14.65;;;8.80;;
74309;SDS011;62722;51.142;17.052;2022-10-18T11:03:05;13.32;;;8.40;;
74309;SDS011;62722;51.142;17.052;2022-10-18T11:05:41;14.68;;;9.15;;
74309;SDS011;62722;51.142;17.052;2022-10-18T11:08:12;14.13;;;8.45;;
74309;SDS011;62722;51.142;17.052;2022-10-18T11:10:53;15.25;;;8.75;;
74309;SDS011;62722;51.142;17.052;2022-10-18T11:13:31;14.50;;;8.95;;
74309;SDS011;62722;51.142;17.052;2022-10-18T11:16:11;12.93;;;8.18;;
74309;SDS011;62722;51.142;17.052;2022-10-18T11:18:42;16.98;;;9.05;;
74309;SDS011;62722;51.142;17.052;2022-10-18T11:21:14;16.83;;;8.90;;
74309;SDS011;62722;51.142;17.052;2022-10-18T11:23:49;13.95;;;8.40;;
74309;SDS011;62722;51.142;17.052;2022-10-18T11:26:23;35.10;;;9.88;;
74309;SDS011;62722;51.142;17.052;2022-10-18T11:29:07;13.27;;;8.10;;
74309;SDS011;62722;51.142;17.052;2022-10-18T11:34:35;13.82;;;8.50;;
74309;SDS011;62722;51.142;17.052;2022-10-18T11:37:24;13.27;;;7.75;;
74309;SDS011;62722;51.142;17.052;2022-10-18T11:40:05;14.45;;;8.13;;
74309;SDS011;62722;51.142;17.052;2022-10-18T11:42:46;14.68;;;8.25;;
74309;SDS011;62722;51.142;17.052;2022-10-18T11:45:24;14.32;;;7.85;;
74309;SDS011;62722;51.142;17.052;2022-10-18T11:47:57;14.80;;;8.25;;
74309;SDS011;62722;51.142;17.052;2022-10-18T11:50:39;13.63;;;8.02;;
74309;SDS011;62722;51.142;17.052;2022-10-18T11:53:17;12.13;;;8.07;;
74309;SDS011;62722;51.142;17.052;2022-10-18T11:55:59;14.20;;;7.93;;
74309;SDS011;62722;51.142;17.052;2022-10-18T11:58:46;13.38;;;8.15;;
74309;SDS011;62722;51.142;17.052;2022-10-18T12:01:26;13.02;;;7.57;;
74309;SDS011;62722;51.142;17.052;2022-10-18T12:04:01;14.10;;;8.30;;
74309;SDS011;62722;51.142;17.052;2022-10-18T12:06:35;11.30;;;7.95;;
74309;SDS011;62722;51.142;17.052;2022-10-18T12:09:08;13.77;;;7.50;;
74309;SDS011;62722;51.142;17.052;2022-10-18T12:11:43;13.73;;;7.55;;
74309;SDS011;62722;51.142;17.052;2022-10-18T12:14:16;16.90;;;8.30;;
74309;SDS011;62722;51.142;17.052;2022-10-18T12:16:50;14.02;;;7.80;;
74309;SDS011;62722;51.142;17.052;2022-10-18T12:19:19;12.65;;;8.13;;
74309;SDS011;62722;51.142;17.052;2022-10-18T12:21:49;12.85;;;7.60;;
74309;SDS011;62722;51.142;17.052;2022-10-18T12:24:19;10.75;;;7.05;;
74309;SDS011;62722;51.142;17.052;2022-10-18T12:26:52;11.68;;;7.50;;
74309;SDS011;62722;51.142;17.052;2022-10-18T12:29:25;11.48;;;7.07;;
74309;SDS011;62722;51.142;17.052;2022-10-18T12:31:57;13.80;;;7.57;;
74309;SDS011;62722;51.142;17.052;2022-10-18T12:34:32;11.90;;;7.65;;
74309;SDS011;62722;51.142;17.052;2022-10-18T12:37:07;10.93;;;7.53;;
74309;SDS011;62722;51.142;17.052;2022-10-18T12:39:48;20.90;;;8.45;;
74309;SDS011;62722;51.142;17.052;2022-10-18T12:42:20;16.95;;;8.70;;
74309;SDS011;62722;51.142;17.052;2022-10-18T12:44:58;14.85;;;8.55;;
74309;SDS011;62722;51.142;17.052;2022-10-18T12:47:27;11.90;;;7.55;;
74309;SDS011;62722;51.142;17.052;2022-10-18T12:49:55;13.57;;;7.93;;
74309;SDS011;62722;51.142;17.052;2022-10-18T12:52:25;13.43;;;8.30;;
74309;SDS011;62722;51.142;17.052;2022-10-18T12:55:00;14.07;;;8.20;;
74309;SDS011;62722;51.142;17.052;2022-10-18T13:01:02;12.23;;;7.63;;
74309;SDS011;62722;51.142;17.052;2022-10-18T13:03:38;12.85;;;8.38;;
74309;SDS011;62722;51.142;17.052;2022-10-18T13:06:16;14.07;;;8.48;;
74309;SDS011;62722;51.142;17.052;2022-10-18T13:08:43;15.50;;;8.38;;
74309;SDS011;62722;51.142;17.052;2022-10-18T13:11:13;15.57;;;8.55;;
74309;SDS011;62722;51.142;17.052;2022-10-18T13:17:10;14.65;;;9.23;;
74309;SDS011;62722;51.142;17.052;2022-10-18T13:19:48;12.82;;;8.18;;
74309;SDS011;62722;51.142;17.052;2022-10-18T13:22:28;15.38;;;8.50;;
74309;SDS011;62722;51.142;17.052;2022-10-18T13:25:11;13.52;;;8.55;;
74309;SDS011;62722;51.142;17.052;2022-10-18T13:27:46;15.68;;;9.38;;
74309;SDS011;62722;51.142;17.052;2022-10-18T13:30:26;14.43;;;9.20;;
74309;SDS011;62722;51.142;17.052;2022-10-18T13:33:03;13.88;;;8.82;;
74309;SDS011;62722;51.142;17.052;2022-10-18T13:35:50;14.25;;;8.98;;
74309;SDS011;62722;51.142;17.052;2022-10-18T13:38:35;12.60;;;8.57;;
74309;SDS011;62722;51.142;17.052;2022-10-18T13:41:05;13.48;;;8.55;;
74309;SDS011;62722;51.142;17.052;2022-10-18T13:53:15;13.85;;;7.97;;
74309;SDS011;62722;51.142;17.052;2022-10-18T13:56:11;11.23;;;7.45;;
74309;SDS011;62722;51.142;17.052;2022-10-18T13:59:02;11.73;;;6.90;;
74309;SDS011;62722;51.142;17.052;2022-10-18T14:01:44;26.83;;;11.55;;
74309;SDS011;62722;51.142;17.052;2022-10-18T14:04:30;15.88;;;8.23;;
74309;SDS011;62722;51.142;17.052;2022-10-18T14:07:06;13.45;;;7.95;;
74309;SDS011;62722;51.142;17.052;2022-10-18T14:09:42;15.65;;;8.65;;
74309;SDS011;62722;51.142;17.052;2022-10-18T14:12:13;15.18;;;8.63;;
74309;SDS011;62722;51.142;17.052;2022-10-18T14:14:53;15.55;;;8.93;;
74309;SDS011;62722;51.142;17.052;2022-10-18T14:17:27;18.10;;;10.43;;
74309;SDS011;62722;51.142;17.052;2022-10-18T14:20:01;16.52;;;10.02;;
74309;SDS011;62722;51.142;17.052;2022-10-18T14:22:42;16.75;;;10.52;;
74309;SDS011;62722;51.142;17.052;2022-10-18T14:25:17;20.80;;;12.63;;
74309;SDS011;62722;51.142;17.052;2022-10-18T14:27:46;15.20;;;8.75;;
74309;SDS011;62722;51.142;17.052;2022-10-18T14:30:14;13.23;;;7.82;;
74309;SDS011;62722;51.142;17.052;2022-10-18T14:32:43;14.35;;;7.75;;
74309;SDS011;62722;51.142;17.052;2022-10-18T14:35:15;13.82;;;8.48;;
74309;SDS011;62722;51.142;17.052;2022-10-18T14:37:46;12.05;;;7.65;;
74309;SDS011;62722;51.142;17.052;2022-10-18T14:40:28;10.32;;;6.38;;
74309;SDS011;62722;51.142;17.052;2022-10-18T14:43:00;9.68;;;6.10;;
74309;SDS011;62722;51.142;17.052;2022-10-18T14:48:03;13.05;;;7.00;;
74309;SDS011;62722;51.142;17.052;2022-10-18T14:50:31;11.13;;;6.78;;
74309;SDS011;62722;51.142;17.052;2022-10-18T14:53:04;11.73;;;6.47;;
74309;SDS011;62722;51.142;17.052;2022-10-18T14:55:32;9.55;;;5.75;;
74309;SDS011;62722;51.142;17.052;2022-10-18T14:58:00;10.57;;;4.82;;
74309;SDS011;62722;51.142;17.052;2022-10-18T15:00:29;6.75;;;3.35;;
74309;SDS011;62722;51.142;17.052;2022-10-18T15:03:01;5.68;;;2.95;;
74309;SDS011;62722;51.142;17.052;2022-10-18T15:05:30;4.80;;;2.60;;
74309;SDS011;62722;51.142;17.052;2022-10-18T15:07:57;3.30;;;1.90;;
74309;SDS011;62722;51.142;17.052;2022-10-18T15:10:28;3.85;;;2.05;;
74309;SDS011;62722;51.142;17.052;2022-10-18T15:12:58;4.68;;;2.33;;
74309;SDS011;62722;51.142;17.052;2022-10-18T15:15:28;5.70;;;2.70;;
74309;SDS011;62722;51.142;17.052;2022-10-18T15:17:56;4.28;;;2.67;;
74309;SDS011;62722;51.142;17.052;2022-10-18T15:20:25;4.80;;;2.88;;